Orbital elements of TELKOM 3S
| Launched | 13 February 2017 |
| Flight ended | – |
| Launch site | Europe's Spaceport, Kourou, French Guiana |
| Owner | Indonesia |
| NORAD ID | 41944 |
| Date fetched |
Epoch osculation |
Inc. [°] |
Ecc. | RA asc node [hr] |
Arg Peri. [°] |
Mean anom [°] |
Mean motion [rev/day] |
Abs. mag |
| Date fetched |
Epoch osculation |
Inc. [°] |
Ecc. | RA asc node [hr] |
Arg Peri. [°] |
Mean anom [°] |
Mean motion [rev/day] |
Abs. mag |
| 2026 May 08 17:57 | 2026 May 07 20:30:00 | 0.0124 | 0.00026 | 16.9093 | 164.7668 | 232.8026 | 1.00271 | – |
| 2026 May 07 17:58 | 2026 May 06 23:58:00 | 0.0141 | 0.00026 | 17.0152 | 160.7927 | 232.8026 | 1.00271 | – |
| 2026 May 06 17:57 | 2026 May 06 11:45:34 | 0.0153 | 0.00026 | 17.0559 | 159.2990 | 232.8026 | 1.00271 | – |
| 2026 May 05 17:57 | 2026 May 05 12:01:59 | 0.0172 | 0.00027 | 16.9034 | 170.3416 | 232.8026 | 1.00271 | – |
| 2026 May 04 17:57 | 2026 May 04 11:26:21 | 0.0051 | 0.00026 | 14.7092 | 192.5960 | 232.8026 | 1.00271 | – |
| 2026 May 03 17:57 | 2026 May 03 12:07:06 | 0.0088 | 0.00026 | 15.4592 | 179.2104 | 232.8026 | 1.00271 | – |
| 2026 May 02 17:57 | 2026 May 02 10:27:00 | 0.0088 | 0.00026 | 15.6373 | 179.3714 | 232.8026 | 1.00271 | – |
| 2026 May 01 17:56 | 2026 Apr 30 17:22:48 | 0.0134 | 0.00028 | 16.0234 | 176.4266 | 232.8026 | 1.00271 | – |
| 2026 Apr 30 17:56 | 2026 Apr 30 12:14:49 | 0.0137 | 0.00027 | 16.0865 | 175.3028 | 232.8026 | 1.00271 | – |
| 2026 Apr 29 17:57 | 2026 Apr 29 12:17:18 | 0.0168 | 0.00027 | 15.8704 | 176.2775 | 232.8026 | 1.00271 | – |
| 2026 Apr 28 17:56 | 2026 Apr 28 10:37:13 | 0.0111 | 0.00025 | 16.2166 | 162.9640 | 232.8026 | 1.00271 | – |
| 2026 Apr 27 17:58 | 2026 Apr 27 11:56:08 | 0.0144 | 0.00024 | 15.9928 | 163.7287 | 232.8026 | 1.00271 | – |
| 2026 Apr 26 17:58 | 2026 Apr 26 10:42:25 | 0.0143 | 0.00024 | 16.1522 | 156.9233 | 232.8026 | 1.00271 | – |
| 2026 Apr 25 17:58 | 2026 Apr 25 12:27:36 | 0.0147 | 0.00023 | 16.1357 | 155.2112 | 232.8026 | 1.00271 | – |
| 2026 Apr 24 17:59 | 2026 Apr 24 12:30:06 | 0.0139 | 0.00023 | 15.8396 | 157.5383 | 232.8026 | 1.00271 | – |
| 2026 Apr 23 17:57 | 2026 Apr 23 00:08:24 | 0.0137 | 0.00023 | 16.4348 | 146.8708 | 232.8026 | 1.00271 | – |
| 2026 Apr 22 17:57 | 2026 Apr 22 06:23:38 | 0.0156 | 0.00022 | 16.5297 | 144.1409 | 232.8026 | 1.00271 | – |
| 2026 Apr 21 17:57 | 2026 Apr 21 09:12:32 | 0.0347 | 0.00022 | 6.3655 | 296.8562 | 232.8026 | 1.00271 | – |
| 2026 Apr 20 17:57 | 2026 Apr 20 13:26:14 | 0.0324 | 0.00022 | 6.7885 | 289.5057 | 232.8026 | 1.00271 | – |
| 2026 Apr 19 17:58 | 2026 Apr 19 10:44:51 | 0.0268 | 0.00022 | 7.7309 | 272.9373 | 232.8026 | 1.00271 | – |
| 2026 Apr 18 17:56 | 2026 Apr 18 05:26:38 | 0.0186 | 0.00022 | 9.1291 | 251.2934 | 232.8026 | 1.00271 | – |
| 2026 Apr 16 17:57 | 2026 Apr 15 23:09:15 | 0.0183 | 0.00023 | 12.4491 | 209.8186 | 232.8026 | 1.00271 | – |
| 2026 Apr 14 17:57 | 2026 Apr 14 11:09:38 | 0.0196 | 0.00023 | 13.4525 | 193.6757 | 232.8026 | 1.00271 | – |
| 2026 Apr 13 17:57 | 2026 Apr 13 05:31:38 | 0.0109 | 0.00024 | 14.8489 | 171.9935 | 232.8026 | 1.00271 | – |
| 2026 Apr 12 17:57 | 2026 Apr 12 12:01:38 | 0.0166 | 0.00024 | 14.2696 | 179.8356 | 232.8026 | 1.00271 | – |
| 2026 Apr 11 17:57 | 2026 Apr 11 11:55:38 | 0.0153 | 0.00024 | 14.3280 | 177.9314 | 232.8026 | 1.00271 | – |